Time;durP1;ratioP1;P1;durP2;ratioP2;P2;SDS_P1;SDS_P2;PMS_P1;PMS_P2;Temp;Humidity;BMP_temperature;BMP_pressure;BME280_temperature;BME280_humidity;BME280_pressure;Samples;Min_cycle;Max_cycle;Signal;HPM_P1;HPM_P2
2021/05/23 00:01:59;;;;;;;2.22;1.55;;;12.50;99.90;;;;;;4972519;28;20049;-75
2021/05/23 00:04:25;;;;;;;4.18;2.28;;;12.50;99.90;;;;;;4972126;28;20026;-76
2021/05/23 00:06:51;;;;;;;2.00;1.60;;;;;;;;;;4970578;28;20023;-76
2021/05/23 00:09:17;;;;;;;2.70;1.60;;;12.40;99.90;;;;;;4967426;28;20076;-75
2021/05/23 00:11:42;;;;;;;2.70;1.90;;;12.40;99.90;;;;;;4974300;28;20187;-75
2021/05/23 00:14:08;;;;;;;2.00;1.80;;;12.40;99.90;;;;;;4970488;28;20114;-76
2021/05/23 00:16:33;;;;;;;2.13;1.58;;;12.40;99.90;;;;;;4970322;28;20109;-75
2021/05/23 00:18:59;;;;;;;4.13;2.45;;;12.40;99.90;;;;;;4970039;28;20045;-76
2021/05/23 00:21:27;;;;;;;3.83;2.00;;;12.30;99.90;;;;;;4970672;28;20019;-75
2021/05/23 00:23:53;;;;;;;3.17;1.95;;;12.30;99.90;;;;;;4970630;28;20035;-76
2021/05/23 00:26:19;;;;;;;3.75;2.40;;;12.20;99.90;;;;;;4971050;28;20034;-75
2021/05/23 00:28:46;;;;;;;2.60;1.80;;;12.20;99.90;;;;;;4971161;28;20058;-76
2021/05/23 00:31:11;;;;;;;2.53;2.25;;;12.10;99.90;;;;;;4966194;28;20090;-75
2021/05/23 00:33:37;;;;;;;1.73;1.63;;;12.10;99.90;;;;;;4968696;28;20418;-74
2021/05/23 00:36:03;;;;;;;4.95;2.35;;;12.00;99.90;;;;;;4969930;28;20468;-73
2021/05/23 00:38:29;;;;;;;3.38;2.40;;;12.10;99.90;;;;;;4970766;28;20027;-74
2021/05/23 00:40:54;;;;;;;3.80;2.35;;;12.00;99.90;;;;;;4970094;28;20398;-72
2021/05/23 00:43:20;;;;;;;2.78;1.95;;;12.00;99.90;;;;;;4976200;28;20035;-75
2021/05/23 00:45:49;;;;;;;2.17;1.73;;;12.00;99.90;;;;;;4975423;28;20022;-75
2021/05/23 00:48:19;;;;;;;2.10;1.83;;;12.00;99.90;;;;;;4975665;28;20061;-73
2021/05/23 00:50:45;;;;;;;2.47;2.03;;;12.00;99.90;;;;;;4974596;28;20440;-76
2021/05/23 00:53:11;;;;;;;4.57;2.50;;;11.90;99.90;;;;;;4975165;28;20117;-75
2021/05/23 00:55:38;;;;;;;3.25;1.92;;;11.90;99.90;;;;;;4980417;28;20027;-76
2021/05/23 00:58:05;;;;;;;5.22;2.38;;;11.90;99.90;;;;;;4979011;28;20035;-75
2021/05/23 01:00:39;;;;;;;3.90;2.15;;;11.90;99.90;;;;;;4973825;28;20023;-75
2021/05/23 01:03:26;;;;;;;2.53;2.28;;;11.80;99.90;;;;;;4968123;28;20050;-75
2021/05/23 01:05:52;;;;;;;3.70;2.40;;;11.90;99.90;;;;;;4974558;28;20584;-75
2021/05/23 01:08:19;;;;;;;2.33;2.10;;;12.00;99.90;;;;;;4972839;28;20035;-75
2021/05/23 01:11:21;;;;;;;2.88;2.28;;;11.90;99.90;;;;;;4971982;28;20030;-73
2021/05/23 01:13:59;;;;;;;3.90;2.85;;;11.90;99.90;;;;;;4971571;28;20026;-73
2021/05/23 01:16:36;;;;;;;2.58;2.10;;;12.00;99.90;;;;;;4979625;28;20038;-73
2021/05/23 01:19:15;;;;;;;3.17;2.08;;;12.00;99.90;;;;;;4974087;28;20285;-74
2021/05/23 01:21:47;;;;;;;4.40;2.05;;;11.90;99.90;;;;;;4970395;28;20031;-74
2021/05/23 01:24:30;;;;;;;2.38;2.17;;;11.90;99.90;;;;;;4975222;28;20030;-74
2021/05/23 01:26:57;;;;;;;2.63;2.10;;;11.80;99.90;;;;;;4973540;28;20474;-74
2021/05/23 01:29:22;;;;;;;4.03;2.10;;;11.70;99.90;;;;;;4975480;28;20046;-73
2021/05/23 01:31:50;;;;;;;2.40;2.17;;;11.70;99.90;;;;;;4975148;28;20034;-73
2021/05/23 01:34:22;;;;;;;2.25;2.03;;;11.70;99.90;;;;;;4973698;28;20485;-72
2021/05/23 01:36:51;;;;;;;2.97;1.95;;;11.60;99.90;;;;;;4975925;28;20037;-74
2021/05/23 01:39:18;;;;;;;2.22;2.03;;;11.50;99.90;;;;;;4975667;28;20047;-73
2021/05/23 01:41:44;;;;;;;3.15;2.40;;;11.40;99.90;;;;;;4975437;28;20087;-74
2021/05/23 01:44:10;;;;;;;3.67;2.17;;;11.40;99.90;;;;;;4973668;28;20065;-74
2021/05/23 01:46:38;;;;;;;2.70;2.40;;;11.30;99.90;;;;;;4973547;28;20113;-74
2021/05/23 01:49:05;;;;;;;3.10;2.38;;;11.30;99.90;;;;;;4974912;28;20026;-74
2021/05/23 01:51:31;;;;;;;2.75;2.45;;;11.30;99.90;;;;;;4973319;28;20023;-74
2021/05/23 01:53:58;;;;;;;3.75;2.25;;;11.20;99.90;;;;;;4972064;28;20497;-74
2021/05/23 01:56:23;;;;;;;2.60;2.10;;;11.20;99.90;;;;;;4972501;28;20026;-74
2021/05/23 01:58:49;;;;;;;2.25;2.05;;;11.10;99.90;;;;;;4973222;28;20492;-74
2021/05/23 02:01:15;;;;;;;2.42;2.22;;;11.10;99.90;;;;;;4973320;28;20030;-73
2021/05/23 02:03:41;;;;;;;3.90;2.38;;;11.10;99.90;;;;;;4974609;28;20110;-74
2021/05/23 02:06:07;;;;;;;4.03;2.10;;;11.00;99.90;;;;;;4973930;28;20225;-74
2021/05/23 02:08:33;;;;;;;2.22;2.03;;;11.00;99.90;;;;;;4982162;28;20090;-75
2021/05/23 02:11:01;;;;;;;2.45;2.22;;;11.00;99.90;;;;;;4983151;28;20116;-74
2021/05/23 02:13:27;;;;;;;3.05;2.10;;;11.00;99.90;;;;;;4981077;28;20031;-74
2021/05/23 02:15:54;;;;;;;2.33;2.13;;;10.90;99.90;;;;;;4981505;28;20098;-76
2021/05/23 02:18:19;;;;;;;2.72;2.10;;;10.80;99.90;;;;;;4983200;28;20042;-75
2021/05/23 02:20:45;;;;;;;3.95;2.42;;;10.80;99.90;;;;;;4978225;28;20085;-74
2021/05/23 02:23:17;;;;;;;4.03;2.53;;;10.70;99.90;;;;;;4976248;28;20066;-73
2021/05/23 02:25:43;;;;;;;2.88;2.53;;;10.70;99.90;;;;;;4977384;28;20118;-74
2021/05/23 02:28:10;;;;;;;2.72;2.40;;;10.70;99.90;;;;;;4975258;28;20109;-73
2021/05/23 02:30:39;;;;;;;4.53;2.45;;;10.70;99.90;;;;;;4977303;28;20039;-73
2021/05/23 02:33:06;;;;;;;3.35;2.08;;;10.70;99.90;;;;;;4974241;28;20605;-73
2021/05/23 02:35:34;;;;;;;2.95;2.38;;;10.70;99.90;;;;;;4971640;28;20109;-75
2021/05/23 02:38:03;;;;;;;4.00;3.10;;;10.60;99.90;;;;;;4976865;28;20034;-74
2021/05/23 02:40:29;;;;;;;2.85;2.33;;;10.60;99.90;;;;;;4977422;28;20050;-74
2021/05/23 02:42:56;;;;;;;3.00;2.33;;;10.60;99.90;;;;;;4977018;28;20377;-74
2021/05/23 02:45:22;;;;;;;2.78;2.42;;;;;;;;;;4977012;28;20309;-74
2021/05/23 02:47:48;;;;;;;2.95;2.35;;;10.60;99.90;;;;;;4992605;28;20027;-74
2021/05/23 02:50:21;;;;;;;3.47;2.60;;;10.50;99.90;;;;;;4982435;28;20138;-74
2021/05/23 02:52:46;;;;;;;3.42;2.40;;;10.50;99.90;;;;;;4977170;28;20029;-74
2021/05/23 02:55:13;;;;;;;2.67;2.17;;;10.50;99.90;;;;;;4976019;28;20078;-74
2021/05/23 02:57:40;;;;;;;3.15;2.20;;;10.50;99.90;;;;;;4978588;28;20033;-74
2021/05/23 03:00:09;;;;;;;2.92;2.35;;;10.50;99.90;;;;;;4981455;28;20023;-75
2021/05/23 03:02:36;;;;;;;4.07;2.60;;;10.40;99.90;;;;;;4972298;28;20332;-74
2021/05/23 03:05:05;;;;;;;3.05;2.00;;;10.40;99.90;;;;;;4976116;28;20034;-73
2021/05/23 03:07:37;;;;;;;4.13;2.15;;;10.40;99.90;;;;;;4976710;28;20385;-74
2021/05/23 03:10:07;;;;;;;2.00;1.80;;;10.30;99.90;;;;;;4972984;28;20015;-75
2021/05/23 03:12:33;;;;;;;3.72;2.78;;;10.30;99.90;;;;;;4973556;28;20023;-73
2021/05/23 03:14:58;;;;;;;3.67;2.13;;;10.30;99.90;;;;;;4975491;28;20026;-74
2021/05/23 03:17:24;;;;;;;3.10;2.40;;;10.30;99.90;;;;;;4975131;28;20031;-74
2021/05/23 03:19:49;;;;;;;4.03;2.30;;;10.30;99.90;;;;;;4975829;28;20548;-75
2021/05/23 03:22:15;;;;;;;3.63;2.00;;;10.30;99.90;;;;;;4981522;28;20030;-75
2021/05/23 03:24:40;;;;;;;2.40;2.20;;;10.30;99.90;;;;;;4976833;28;20058;-76
2021/05/23 03:27:09;;;;;;;4.03;2.33;;;10.40;99.90;;;;;;4977682;28;20026;-74
2021/05/23 03:29:35;;;;;;;2.92;2.17;;;10.40;99.90;;;;;;4974978;28;20019;-75
2021/05/23 03:32:06;;;;;;;5.00;2.10;;;10.30;99.90;;;;;;4984931;28;20435;-76
2021/05/23 03:34:33;;;;;;;3.03;2.10;;;10.30;99.90;;;;;;4970534;28;20041;-76
2021/05/23 03:36:58;;;;;;;2.72;2.08;;;10.40;99.90;;;;;;4979424;28;20113;-74
2021/05/23 03:39:27;;;;;;;5.90;2.08;;;10.40;99.90;;;;;;4972179;28;20042;-73
2021/05/23 03:41:52;;;;;;;3.47;1.95;;;10.40;99.90;;;;;;4976008;28;20027;-73
2021/05/23 03:44:18;;;;;;;3.25;2.00;;;10.40;99.90;;;;;;4976998;28;20085;-72
2021/05/23 03:46:46;;;;;;;2.97;2.50;;;10.40;99.90;;;;;;4974907;28;20055;-76
2021/05/23 03:49:12;;;;;;;4.82;2.45;;;10.50;99.90;;;;;;4976320;28;20033;-74
2021/05/23 03:51:38;;;;;;;4.05;2.42;;;10.50;99.90;;;;;;4976668;28;20117;-74
2021/05/23 03:54:03;;;;;;;3.83;2.30;;;10.50;99.90;;;;;;4974886;28;20039;-74
2021/05/23 03:56:29;;;;;;;2.95;2.03;;;10.50;99.90;;;;;;4975689;28;20551;-73
2021/05/23 03:58:54;;;;;;;3.20;2.45;;;10.50;99.90;;;;;;4975569;28;20050;-75
2021/05/23 04:01:20;;;;;;;3.80;2.58;;;10.60;99.90;;;;;;4975654;28;20242;-74
2021/05/23 04:03:47;;;;;;;3.35;2.17;;;10.60;99.90;;;;;;4972894;28;20102;-74
2021/05/23 04:06:13;;;;;;;5.60;3.53;;;10.50;99.90;;;;;;4975401;28;20031;-74
2021/05/23 04:08:38;;;;;;;2.63;2.30;;;10.60;99.90;;;;;;4976560;28;20027;-74
2021/05/23 04:11:09;;;;;;;3.10;2.20;;;10.60;99.90;;;;;;4975191;28;20106;-74
2021/05/23 04:13:37;;;;;;;3.53;2.28;;;10.70;99.90;;;;;;4975749;28;20023;-74
2021/05/23 04:16:03;;;;;;;4.25;2.35;;;10.70;99.90;;;;;;4970423;28;20031;-74
2021/05/23 04:18:28;;;;;;;3.40;2.22;;;10.80;99.90;;;;;;4976820;28;20022;-74
2021/05/23 04:20:54;;;;;;;3.08;1.77;;;11.10;99.90;;;;;;4975992;28;20027;-74
2021/05/23 04:23:20;;;;;;;4.70;2.10;;;11.00;99.90;;;;;;4978451;28;20102;-74
2021/05/23 04:25:45;;;;;;;4.63;2.88;;;11.10;99.90;;;;;;4975650;28;20027;-75
2021/05/23 04:28:11;;;;;;;2.65;1.88;;;11.20;99.90;;;;;;4976531;28;20023;-74
2021/05/23 04:30:36;;;;;;;3.03;2.00;;;11.40;99.90;;;;;;4976263;28;20056;-74
2021/05/23 04:33:03;;;;;;;3.33;1.85;;;11.40;99.90;;;;;;4971565;28;20019;-73
2021/05/23 04:35:28;;;;;;;3.63;2.75;;;11.30;99.90;;;;;;4972089;28;20097;-74
2021/05/23 04:37:57;;;;;;;2.60;1.73;;;11.30;99.90;;;;;;4974094;28;20022;-76
2021/05/23 04:40:23;;;;;;;2.17;1.95;;;11.30;99.90;;;;;;4972610;28;20611;-74
2021/05/23 04:42:48;;;;;;;3.85;2.08;;;11.20;99.90;;;;;;4975314;28;20027;-75
2021/05/23 04:45:15;;;;;;;4.05;2.10;;;11.40;99.90;;;;;;4977440;28;20053;-74
2021/05/23 04:47:41;;;;;;;2.65;1.60;;;11.60;99.90;;;;;;4975427;28;20039;-76
2021/05/23 04:50:08;;;;;;;2.20;2.00;;;11.50;99.90;;;;;;4976536;28;20058;-75
2021/05/23 04:52:34;;;;;;;5.90;2.25;;;11.50;99.90;;;;;;4974430;28;20027;-75
2021/05/23 04:55:00;;;;;;;2.88;2.10;;;11.50;99.90;;;;;;4977624;28;20030;-76
2021/05/23 04:57:25;;;;;;;4.78;2.55;;;11.40;99.90;;;;;;4976505;28;20033;-76
2021/05/23 04:59:52;;;;;;;2.00;1.80;;;11.40;99.90;;;;;;4977926;28;20497;-74
2021/05/23 05:02:19;;;;;;;4.72;2.60;;;11.40;99.90;;;;;;4975314;28;20030;-75
2021/05/23 05:04:45;;;;;;;2.30;1.80;;;11.60;99.90;;;;;;4977197;28;20031;-74
2021/05/23 05:07:11;;;;;;;4.38;1.90;;;11.80;99.90;;;;;;4977501;28;20031;-74
2021/05/23 05:09:36;;;;;;;2.08;1.77;;;12.00;99.90;;;;;;4978984;28;20127;-76
2021/05/23 05:12:02;;;;;;;2.53;1.85;;;12.10;99.90;;;;;;4977528;28;20070;-75
2021/05/23 05:14:28;;;;;;;2.65;1.60;;;12.20;99.90;;;;;;4977025;28;20160;-73
2021/05/23 05:16:53;;;;;;;2.05;1.77;;;12.20;99.90;;;;;;4973783;28;20038;-74
2021/05/23 05:19:19;;;;;;;3.67;1.75;;;12.10;99.90;;;;;;4976791;28;20023;-74
2021/05/23 05:21:45;;;;;;;2.45;1.80;;;;;;;;;;4977057;28;20124;-74
2021/05/23 05:24:11;;;;;;;4.35;2.00;;;12.30;99.90;;;;;;4973097;28;20034;-74
2021/05/23 05:26:37;;;;;;;2.55;1.90;;;12.20;99.90;;;;;;4974383;28;20023;-73
2021/05/23 05:29:03;;;;;;;2.70;1.90;;;12.00;99.90;;;;;;4980907;28;20038;-75
2021/05/23 05:31:29;;;;;;;3.67;2.13;;;12.00;99.90;;;;;;4980091;28;20035;-74
2021/05/23 05:33:55;;;;;;;2.30;2.10;;;11.80;99.90;;;;;;4979279;28;20038;-74
2021/05/23 05:36:20;;;;;;;2.75;1.70;;;11.80;99.90;;;;;;4978214;28;20031;-74
2021/05/23 05:38:48;;;;;;;2.95;1.75;;;11.80;99.90;;;;;;4978576;28;20085;-76
2021/05/23 05:41:14;;;;;;;2.38;1.75;;;11.70;99.90;;;;;;4993146;28;20072;-74
2021/05/23 05:43:40;;;;;;;3.05;2.03;;;11.80;99.90;;;;;;4973621;28;20481;-75
2021/05/23 05:46:05;;;;;;;3.00;2.13;;;11.90;99.90;;;;;;4972960;28;20038;-74
2021/05/23 05:48:31;;;;;;;2.05;1.52;;;12.10;99.90;;;;;;4971076;28;20029;-75
2021/05/23 05:50:57;;;;;;;3.17;1.55;;;12.10;99.90;;;;;;4974635;28;20498;-74
2021/05/23 05:53:22;;;;;;;2.38;1.65;;;12.20;99.90;;;;;;4974851;28;20063;-74
2021/05/23 05:55:48;;;;;;;2.53;1.80;;;12.20;99.90;;;;;;4974277;28;20323;-73
2021/05/23 05:58:13;;;;;;;3.97;1.88;;;12.10;99.90;;;;;;4972966;28;20106;-73
2021/05/23 06:00:39;;;;;;;4.07;1.80;;;12.10;99.90;;;;;;4975784;28;20521;-74
2021/05/23 06:03:04;;;;;;;3.03;1.55;;;12.10;99.90;;;;;;4982075;28;20023;-74
2021/05/23 06:05:30;;;;;;;2.58;1.83;;;12.10;99.90;;;;;;4979301;28;20022;-73
2021/05/23 06:07:55;;;;;;;3.28;2.22;;;12.10;99.90;;;;;;4977543;28;20050;-73
2021/05/23 06:10:22;;;;;;;2.83;1.63;;;12.20;99.90;;;;;;4977720;28;20034;-74
2021/05/23 06:12:48;;;;;;;3.50;2.05;;;12.10;99.90;;;;;;4975848;28;20027;-74
2021/05/23 06:15:14;;;;;;;1.90;1.70;;;12.10;99.90;;;;;;4981284;28;20042;-74
2021/05/23 06:17:39;;;;;;;2.70;1.98;;;12.00;99.90;;;;;;4981738;28;20027;-75
2021/05/23 06:20:06;;;;;;;2.35;1.52;;;12.00;99.90;;;;;;4977517;28;20034;-74
2021/05/23 06:22:32;;;;;;;1.70;1.50;;;12.00;99.90;;;;;;4972701;28;20062;-74
2021/05/23 06:24:58;;;;;;;2.72;1.52;;;12.00;99.90;;;;;;4973280;28;20314;-73
2021/05/23 06:27:23;;;;;;;2.63;1.70;;;11.90;99.90;;;;;;4974777;28;20381;-74
2021/05/23 06:29:49;;;;;;;3.00;1.83;;;11.90;99.90;;;;;;4972410;28;20492;-74
2021/05/23 06:32:15;;;;;;;1.80;1.70;;;11.90;99.90;;;;;;4972683;28;20030;-73
2021/05/23 06:34:40;;;;;;;3.05;1.70;;;11.90;99.90;;;;;;4972164;28;20109;-73
2021/05/23 06:37:06;;;;;;;2.88;1.88;;;12.00;99.90;;;;;;4971763;28;20462;-73
2021/05/23 06:39:31;;;;;;;3.95;1.83;;;11.90;99.90;;;;;;4976374;28;20053;-73
2021/05/23 06:41:57;;;;;;;2.28;1.80;;;11.90;99.90;;;;;;4983585;28;20058;-74
2021/05/23 06:44:23;;;;;;;2.92;1.83;;;11.90;99.90;;;;;;4977985;28;20027;-74
2021/05/23 06:46:48;;;;;;;2.67;1.73;;;11.90;99.90;;;;;;4975537;28;20432;-74
2021/05/23 06:49:14;;;;;;;2.15;1.60;;;11.90;99.90;;;;;;4974938;28;20027;-74
2021/05/23 06:51:40;;;;;;;2.28;1.67;;;11.90;99.90;;;;;;4973241;28;20065;-74
2021/05/23 06:54:05;;;;;;;2.33;1.75;;;11.80;99.90;;;;;;4971546;28;20034;-74
2021/05/23 06:56:31;;;;;;;3.22;1.90;;;11.80;99.90;;;;;;4975818;28;20031;-74
2021/05/23 06:58:57;;;;;;;3.45;1.90;;;11.90;99.90;;;;;;4972928;28;20022;-74
2021/05/23 07:01:22;;;;;;;3.33;2.05;;;11.90;99.90;;;;;;4974275;28;20097;-73
2021/05/23 07:03:48;;;;;;;2.35;1.90;;;11.90;99.90;;;;;;4972636;28;20082;-75
2021/05/23 07:06:14;;;;;;;3.95;2.03;;;11.80;99.90;;;;;;4971795;28;20038;-75
2021/05/23 07:08:40;;;;;;;3.67;2.20;;;11.80;99.90;;;;;;4969870;28;20034;-75
2021/05/23 07:11:05;;;;;;;3.55;2.25;;;11.80;99.90;;;;;;4973081;28;20030;-75
2021/05/23 07:13:31;;;;;;;3.40;1.90;;;11.90;99.90;;;;;;4972052;28;20085;-76
2021/05/23 07:15:56;;;;;;;3.53;1.90;;;11.90;99.90;;;;;;4970028;28;20111;-76
2021/05/23 07:18:22;;;;;;;2.58;1.48;;;12.20;99.90;;;;;;4970033;28;20054;-75
2021/05/23 07:20:48;;;;;;;2.00;1.27;;;12.40;99.90;;;;;;4971430;28;20030;-73
2021/05/23 07:23:13;;;;;;;2.95;1.50;;;12.70;99.90;;;;;;4972210;28;20031;-74
2021/05/23 07:25:39;;;;;;;2.70;1.50;;;13.10;99.90;;;;;;4970219;28;20023;-74
2021/05/23 07:28:05;;;;;;;2.17;1.73;;;13.40;99.90;;;;;;4971813;28;20031;-73
2021/05/23 07:30:31;;;;;;;2.38;1.40;;;13.60;99.90;;;;;;4971590;28;20031;-74
2021/05/23 07:32:57;;;;;;;1.85;1.60;;;13.90;99.90;;;;;;4972335;28;20062;-73
2021/05/23 07:35:23;;;;;;;2.97;1.60;;;14.20;99.90;;;;;;4972773;28;20034;-75
2021/05/23 07:37:48;;;;;;;3.20;1.50;;;14.60;99.90;;;;;;4972138;28;20051;-75
2021/05/23 07:40:14;;;;;;;2.78;1.77;;;14.60;99.90;;;;;;4974115;28;20047;-74
2021/05/23 07:42:42;;;;;;;2.78;1.42;;;14.80;99.90;;;;;;4975369;28;20562;-75
2021/05/23 07:45:08;;;;;;;2.78;1.40;;;15.10;99.90;;;;;;4976030;28;20152;-75
2021/05/23 07:47:33;;;;;;;4.80;1.70;;;15.60;99.90;;;;;;4974141;28;20027;-75
2021/05/23 07:49:59;;;;;;;2.58;1.40;;;15.90;99.90;;;;;;4972192;28;20384;-73
2021/05/23 07:52:24;;;;;;;3.33;1.60;;;16.00;99.90;;;;;;4974079;28;20030;-74
2021/05/23 07:54:50;;;;;;;2.20;1.27;;;16.40;99.90;;;;;;4978371;28;20034;-73
2021/05/23 07:57:16;;;;;;;1.90;1.60;;;16.90;99.50;;;;;;4978741;28;20042;-74
2021/05/23 07:59:41;;;;;;;1.60;1.08;;;17.30;98.90;;;;;;4980036;28;20034;-73
2021/05/23 08:02:07;;;;;;;1.77;1.30;;;17.50;96.10;;;;;;4977085;28;20029;-74
2021/05/23 08:04:33;;;;;;;1.48;1.38;;;17.40;95.00;;;;;;4971744;28;20018;-74
2021/05/23 08:06:58;;;;;;;28.38;21.15;;;17.10;95.50;;;;;;4973797;28;20966;-75
2021/05/23 08:09:24;;;;;;;4.32;1.90;;;17.30;94.10;;;;;;4974510;28;20535;-75
2021/05/23 08:11:50;;;;;;;4.18;1.50;;;17.30;94.40;;;;;;4970931;28;20628;-75
2021/05/23 08:14:16;;;;;;;2.72;1.75;;;17.40;93.10;;;;;;4968630;28;20035;-73
2021/05/23 08:16:44;;;;;;;3.65;1.70;;;17.30;91.20;;;;;;4968421;28;20061;-74
2021/05/23 08:19:11;;;;;;;2.10;1.20;;;17.30;92.10;;;;;;4970040;28;20038;-73
2021/05/23 08:21:36;;;;;;;2.00;1.05;;;17.40;91.50;;;;;;4969890;28;20409;-72
2021/05/23 08:24:02;;;;;;;1.50;1.35;;;17.90;88.30;;;;;;4968086;28;20328;-73
2021/05/23 08:26:28;;;;;;;4.03;1.40;;;18.30;85.20;;;;;;4962353;28;20665;-73
2021/05/23 08:28:53;;;;;;;2.60;1.75;;;18.90;82.10;;;;;;4971357;28;20027;-73
2021/05/23 08:31:25;;;;;;;3.42;1.30;;;18.90;78.10;;;;;;4974380;28;20042;-77
2021/05/23 08:33:51;;;;;;;2.83;1.50;;;;;;;;;;4967976;28;20062;-77
2021/05/23 08:36:17;;;;;;;2.80;1.52;;;18.50;78.70;;;;;;4974657;28;20061;-73
2021/05/23 08:38:42;;;;;;;2.38;1.35;;;17.90;83.20;;;;;;4975162;28;20026;-73
2021/05/23 08:41:08;;;;;;;2.72;1.40;;;18.10;82.40;;;;;;4974027;28;20481;-73
2021/05/23 08:43:34;;;;;;;2.85;1.70;;;18.80;80.30;;;;;;4968880;28;20030;-72
2021/05/23 08:46:01;;;;;;;2.20;1.38;;;19.20;76.90;;;;;;4964371;28;20023;-73
2021/05/23 08:48:26;;;;;;;2.40;1.13;;;18.90;75.90;;;;;;4968952;28;20070;-73
2021/05/23 08:50:52;;;;;;;2.20;1.30;;;18.20;77.30;;;;;;4969354;28;20073;-73
2021/05/23 08:53:18;;;;;;;1.58;1.33;;;18.20;78.00;;;;;;4968969;28;20501;-74
2021/05/23 08:55:45;;;;;;;2.35;1.40;;;18.60;77.10;;;;;;4965491;28;20129;-72
2021/05/23 08:58:11;;;;;;;2.47;1.45;;;18.00;78.20;;;;;;4967910;28;20497;-73
2021/05/23 09:00:37;;;;;;;3.10;1.58;;;17.50;81.80;;;;;;4968958;28;20034;-72
2021/05/23 09:03:06;;;;;;;4.68;1.85;;;17.00;84.80;;;;;;4970433;28;20034;-72
2021/05/23 09:05:34;;;;;;;2.10;1.90;;;17.00;86.10;;;;;;4973668;28;20031;-72
2021/05/23 09:08:01;;;;;;;2.83;1.92;;;16.90;88.20;;;;;;4972870;28;20122;-72
2021/05/23 09:10:33;;;;;;;1.80;1.60;;;16.60;89.30;;;;;;4971298;28;20034;-72
2021/05/23 09:12:58;;;;;;;;;;;16.90;88.30;;;;;;4970789;28;20512;-72
2021/05/23 09:15:25;;;;;;;1.73;1.35;;;16.90;88.50;;;;;;4971747;28;19914;-72
2021/05/23 09:18:05;;;;;;;2.65;1.38;;;17.60;88.60;;;;;;4971044;28;20019;-72
2021/05/23 09:20:32;;;;;;;2.83;1.30;;;17.80;88.70;;;;;;4968480;28;20043;-72
2021/05/23 09:23:01;;;;;;;3.03;1.45;;;19.70;79.20;;;;;;4970568;28;20035;-72
2021/05/23 09:25:35;;;;;;;1.88;1.48;;;20.60;72.50;;;;;;4970005;28;20027;-72
2021/05/23 09:28:01;;;;;;;2.33;1.83;;;20.60;69.80;;;;;;4968350;28;20020;-71
2021/05/23 09:30:29;;;;;;;3.10;2.00;;;21.10;69.40;;;;;;4972428;28;20031;-73
2021/05/23 09:32:57;;;;;;;1.65;1.23;;;21.30;67.50;;;;;;4982597;28;20401;-72
2021/05/23 09:35:24;;;;;;;2.90;1.60;;;20.40;68.70;;;;;;4971711;28;20038;-72
2021/05/23 09:38:06;;;;;;;2.72;1.50;;;20.00;70.00;;;;;;4967160;28;20374;-72
2021/05/23 09:40:37;;;;;;;2.08;1.75;;;19.80;72.10;;;;;;4967305;28;20555;-72
2021/05/23 09:43:05;;;;;;;1.65;1.25;;;22.20;64.60;;;;;;4969004;28;20493;-73
2021/05/23 09:45:51;;;;;;;8.93;4.63;;;22.20;65.00;;;;;;4969790;28;20078;-70
2021/05/23 09:48:25;;;;;;;2.15;1.15;;;24.00;61.40;;;;;;4967161;28;20027;-69
2021/05/23 09:50:53;;;;;;;1.23;1.10;;;24.30;57.20;;;;;;4968049;28;20039;-71
2021/05/23 09:53:27;;;;;;;1.83;1.35;;;24.30;54.20;;;;;;4970861;28;20479;-70
2021/05/23 09:55:58;;;;;;;1.63;1.35;;;24.70;52.60;;;;;;4972007;28;20505;-71
2021/05/23 09:58:27;;;;;;;1.50;1.13;;;25.30;52.50;;;;;;4970672;28;20474;-70
2021/05/23 10:00:54;;;;;;;1.70;1.30;;;25.80;51.10;;;;;;4970198;28;20066;-70
2021/05/23 10:03:40;;;;;;;2.53;1.52;;;26.30;50.10;;;;;;4970166;28;20058;-72
2021/05/23 10:06:07;;;;;;;2.08;1.50;;;26.70;48.70;;;;;;4970385;28;20046;-72
2021/05/23 10:08:33;;;;;;;0.98;0.80;;;26.80;48.30;;;;;;4970361;28;20042;-71
2021/05/23 10:10:59;;;;;;;1.00;0.90;;;24.50;50.30;;;;;;4969206;28;20029;-71
2021/05/23 10:13:26;;;;;;;0.95;0.70;;;25.70;50.50;;;;;;4969826;28;20039;-72
2021/05/23 10:15:52;;;;;;;1.50;1.00;;;26.20;49.00;;;;;;4968995;28;20031;-72
2021/05/23 10:18:24;;;;;;;2.85;1.50;;;25.80;47.60;;;;;;4968849;28;20030;-73
2021/05/23 10:20:58;;;;;;;0.60;0.60;;;25.20;48.70;;;;;;4965870;28;20046;-73
2021/05/23 10:23:36;;;;;;;1.42;0.85;;;25.20;48.40;;;;;;4966969;28;20030;-71
2021/05/23 10:26:05;;;;;;;1.33;0.88;;;25.60;48.20;;;;;;4969970;28;20058;-70
2021/05/23 10:28:31;;;;;;;2.13;0.80;;;25.60;47.50;;;;;;4967695;28;20100;-71
2021/05/23 10:30:58;;;;;;;1.63;1.20;;;26.70;46.50;;;;;;4970398;28;20070;-70
2021/05/23 10:33:24;;;;;;;1.30;1.13;;;26.70;46.00;;;;;;4961599;28;20035;-71
2021/05/23 10:35:52;;;;;;;1.23;1.13;;;26.90;46.20;;;;;;4966080;28;20097;-70
2021/05/23 10:38:22;;;;;;;0.65;0.65;;;26.10;45.10;;;;;;4967807;28;20042;-70
2021/05/23 10:40:57;;;;;;;1.20;0.93;;;25.50;45.60;;;;;;4970092;28;20497;-70
2021/05/23 10:43:29;;;;;;;1.55;1.10;;;24.10;48.10;;;;;;4965639;28;20066;-70
2021/05/23 10:46:12;;;;;;;0.90;0.75;;;24.10;48.30;;;;;;4969515;28;20023;-70
2021/05/23 10:48:50;;;;;;;0.93;0.77;;;22.30;51.90;;;;;;4970062;28;20437;-70
2021/05/23 10:51:18;;;;;;;1.85;1.15;;;23.70;50.00;;;;;;4967220;28;20118;-70
2021/05/23 10:53:46;;;;;;;1.70;1.10;;;23.80;49.10;;;;;;4968119;28;20030;-70
2021/05/23 10:56:30;;;;;;;0.73;0.73;;;26.30;47.00;;;;;;4966923;28;20038;-70
2021/05/23 10:59:00;;;;;;;2.35;0.70;;;26.30;47.50;;;;;;4968025;28;20023;-71
2021/05/23 11:01:40;;;;;;;1.45;0.80;;;26.30;46.50;;;;;;4967763;28;20488;-69
2021/05/23 11:04:19;;;;;;;1.85;1.35;;;25.10;46.90;;;;;;4968843;28;20031;-69
2021/05/23 11:06:47;;;;;;;1.17;1.00;;;23.50;50.30;;;;;;4965546;28;20026;-71
2021/05/23 11:09:16;;;;;;;1.40;1.05;;;22.10;51.70;;;;;;4969572;28;20026;-70
2021/05/23 11:11:43;;;;;;;1.40;1.00;;;21.50;52.60;;;;;;4962683;28;20105;-70
2021/05/23 11:14:18;;;;;;;1.60;0.90;;;21.00;54.00;;;;;;4969042;28;20763;-71
2021/05/23 11:16:55;;;;;;;1.30;1.20;;;21.00;54.50;;;;;;4965938;28;20030;-69
2021/05/23 11:19:24;;;;;;;1.00;1.00;;;22.70;53.40;;;;;;4967994;28;20042;-70
2021/05/23 11:21:54;;;;;;;1.10;1.00;;;24.00;50.50;;;;;;4969373;28;20065;-69
2021/05/23 11:24:31;;;;;;;1.03;0.93;;;23.40;51.20;;;;;;4969427;28;20035;-70
2021/05/23 11:26:57;;;;;;;1.52;0.80;;;23.80;50.70;;;;;;4969240;28;20102;-69
2021/05/23 11:29:26;;;;;;;0.95;0.90;;;23.40;51.30;;;;;;4969128;28;20035;-70
2021/05/23 11:31:51;;;;;;;1.85;1.10;;;23.40;49.40;;;;;;4969601;28;20046;-70
2021/05/23 11:34:21;;;;;;;1.75;1.20;;;23.40;50.00;;;;;;4969727;28;20059;-70
2021/05/23 11:36:47;;;;;;;2.30;1.42;;;23.20;50.70;;;;;;4966863;28;20058;-70
2021/05/23 11:39:16;;;;;;;4.18;1.90;;;22.30;51.70;;;;;;4965465;28;20041;-70
2021/05/23 11:41:45;;;;;;;2.30;1.58;;;25.60;55.50;;;;;;4946046;29;20111;-69
2021/05/23 11:44:14;;;;;;;2.30;1.30;;;21.70;53.10;;;;;;4945521;29;20042;-71
2021/05/23 11:46:42;;;;;;;2.58;1.70;;;21.40;53.30;;;;;;4950747;28;20038;-71
2021/05/23 11:49:17;;;;;;;3.03;2.22;;;20.50;55.00;;;;;;4948360;28;20027;-71
2021/05/23 11:51:42;;;;;;;3.33;1.10;;;19.80;56.40;;;;;;4946567;29;20035;-71
2021/05/23 11:54:08;;;;;;;2.75;1.40;;;19.60;57.10;;;;;;4947598;29;20035;-71
2021/05/23 11:56:35;;;;;;;2.00;1.33;;;19.50;57.90;;;;;;4951845;28;20078;-73
2021/05/23 11:59:05;;;;;;;2.08;1.20;;;19.40;59.00;;;;;;4950590;28;20408;-73
2021/05/23 12:01:33;;;;;;;1.20;1.10;;;19.50;58.90;;;;;;4952565;28;20035;-74
2021/05/23 12:04:11;;;;;;;2.08;1.20;;;19.70;59.10;;;;;;4951767;28;20406;-73
2021/05/23 12:06:42;;;;;;;2.80;1.73;;;19.40;59.00;;;;;;4943811;28;20034;-72
2021/05/23 12:09:12;;;;;;;2.00;1.80;;;21.50;56.50;;;;;;4949090;29;20031;-74
2021/05/23 12:11:40;;;;;;;1.70;1.58;;;22.40;54.10;;;;;;4945545;29;20032;-70
2021/05/23 12:14:17;;;;;;;1.13;1.00;;;22.00;51.00;;;;;;4947102;28;20035;-72
2021/05/23 12:16:43;;;;;;;1.33;1.10;;;22.00;51.20;;;;;;4955499;28;20047;-73
2021/05/23 12:19:11;;;;;;;2.20;1.00;;;21.20;52.50;;;;;;4950104;29;20216;-73
2021/05/23 12:21:36;;;;;;;1.40;1.20;;;20.70;54.00;;;;;;4947653;29;20031;-72
2021/05/23 12:24:02;;;;;;;1.77;1.25;;;20.40;55.10;;;;;;4958128;28;20049;-73
2021/05/23 12:26:29;;;;;;;1.27;1.15;;;20.00;55.40;;;;;;4940929;29;20111;-74
2021/05/23 12:28:55;;;;;;;1.38;1.15;;;20.10;55.40;;;;;;4945472;29;20332;-72
2021/05/23 12:31:22;;;;;;;1.23;1.00;;;19.80;56.10;;;;;;4947386;29;20110;-72
2021/05/23 12:33:56;;;;;;;3.20;1.55;;;19.80;56.60;;;;;;4949859;28;20045;-73
2021/05/23 12:36:26;;;;;;;1.60;1.17;;;19.50;57.60;;;;;;4949013;28;20035;-73
2021/05/23 12:39:04;;;;;;;6.30;4.15;;;19.30;58.90;;;;;;4956125;28;20027;-73
2021/05/23 12:41:38;;;;;;;2.40;1.48;;;20.80;56.70;;;;;;4945464;29;20074;-72
2021/05/23 12:44:28;;;;;;;6.68;4.88;;;20.90;57.30;;;;;;4943665;28;20031;-71
2021/05/23 12:46:54;;;;;;;2.63;1.60;;;21.10;55.60;;;;;;4945651;29;20037;-73
2021/05/23 12:49:26;;;;;;;2.30;1.25;;;20.90;55.40;;;;;;4949104;29;20031;-73
2021/05/23 12:51:53;;;;;;;1.60;1.50;;;20.90;56.30;;;;;;4946037;29;20038;-72